createdAt,value
2018-06-30T00:01:26.305Z,8.90
2018-06-30T00:03:56.200Z,9.57
2018-06-30T00:06:26.119Z,9.63
2018-06-30T00:08:55.724Z,9.67
2018-06-30T00:11:24.635Z,10.80
2018-06-30T00:13:53.748Z,10.10
2018-06-30T00:16:22.464Z,9.47
2018-06-30T00:18:51.444Z,10.40
2018-06-30T00:21:20.193Z,9.77
2018-06-30T00:23:48.867Z,10.00
2018-06-30T00:26:18.161Z,11.03
2018-06-30T00:28:46.848Z,10.63
2018-06-30T00:31:16.141Z,11.97
2018-06-30T00:33:45.249Z,11.27
2018-06-30T00:36:13.955Z,10.40
2018-06-30T00:38:42.968Z,11.37
2018-06-30T00:41:11.615Z,11.57
2018-06-30T00:43:40.336Z,11.70
2018-06-30T00:46:09.137Z,11.40
2018-06-30T00:48:38.381Z,12.27
2018-06-30T00:51:07.367Z,12.10
2018-06-30T00:53:36.001Z,12.30
2018-06-30T00:56:04.915Z,12.60
2018-06-30T00:58:33.782Z,13.23
2018-06-30T01:01:02.444Z,12.73
2018-06-30T01:03:31.460Z,13.13
2018-06-30T01:06:00.129Z,12.67
2018-06-30T01:08:28.797Z,12.87
2018-06-30T01:10:57.676Z,12.90
2018-06-30T01:13:26.929Z,13.07
2018-06-30T01:15:55.963Z,14.10
2018-06-30T01:18:24.608Z,13.60
2018-06-30T01:20:53.605Z,13.23
2018-06-30T01:23:22.312Z,12.80
2018-06-30T01:25:51.292Z,13.23
2018-06-30T01:28:19.946Z,13.27
2018-06-30T01:30:48.592Z,13.73
2018-06-30T01:33:17.329Z,14.50
2018-06-30T01:35:46.372Z,15.33
2018-06-30T01:38:15.108Z,15.77
2018-06-30T01:40:44.275Z,15.03
2018-06-30T01:43:13.491Z,15.27
2018-06-30T01:45:42.192Z,16.17
2018-06-30T01:48:10.866Z,15.93
2018-06-30T01:50:39.913Z,16.23
2018-06-30T01:53:08.693Z,14.83
2018-06-30T01:55:37.839Z,16.20
2018-06-30T01:58:07.634Z,17.23
2018-06-30T02:00:36.393Z,16.93
2018-06-30T02:03:05.357Z,17.50
2018-06-30T02:05:34.023Z,17.30
2018-06-30T02:08:02.655Z,16.13
2018-06-30T02:10:31.377Z,17.90
2018-06-30T02:13:00.102Z,17.20
2018-06-30T02:15:28.977Z,17.30
2018-06-30T02:17:57.643Z,18.07
2018-06-30T02:20:26.225Z,17.77
2018-06-30T02:22:55.173Z,17.53
2018-06-30T02:25:23.898Z,18.40
2018-06-30T02:27:52.539Z,17.47
2018-06-30T02:30:21.426Z,19.23
2018-06-30T02:32:50.391Z,17.57
2018-06-30T02:35:19.058Z,16.93
2018-06-30T02:37:48.012Z,17.37
2018-06-30T02:40:16.717Z,18.73
2018-06-30T02:42:45.976Z,20.13
2018-06-30T02:45:14.720Z,18.33
2018-06-30T02:47:43.464Z,17.97
2018-06-30T02:50:12.497Z,18.70
2018-06-30T02:52:41.173Z,19.90
2018-06-30T02:55:09.762Z,19.77
2018-06-30T02:57:38.320Z,20.70
2018-06-30T03:00:06.877Z,20.40
2018-06-30T03:02:35.651Z,19.60
2018-06-30T03:05:04.726Z,18.90
2018-06-30T03:07:33.366Z,21.60
2018-06-30T03:10:02.011Z,20.20
2018-06-30T03:12:30.740Z,20.07
2018-06-30T03:14:59.392Z,19.37
2018-06-30T03:17:28.085Z,19.33
2018-06-30T03:19:56.821Z,19.80
2018-06-30T03:22:25.525Z,20.00
2018-06-30T03:24:54.035Z,21.23
2018-06-30T03:27:22.635Z,19.33
2018-06-30T03:29:51.255Z,19.53
2018-06-30T03:32:20.205Z,18.93
2018-06-30T03:34:49.196Z,20.67
2018-06-30T03:37:17.881Z,19.97
2018-06-30T03:39:46.828Z,20.87
2018-06-30T03:42:15.825Z,19.90
2018-06-30T03:44:44.451Z,19.90
2018-06-30T03:47:13.307Z,20.27
2018-06-30T03:49:42.008Z,19.77
2018-06-30T03:52:10.725Z,21.40
2018-06-30T03:54:39.469Z,22.00
2018-06-30T03:57:08.169Z,21.57
2018-06-30T03:59:36.808Z,21.53
2018-06-30T04:02:05.495Z,20.83
2018-06-30T04:04:34.028Z,22.67
2018-06-30T04:07:02.764Z,22.80
2018-06-30T04:09:31.441Z,22.20
2018-06-30T04:12:00.544Z,22.70
2018-06-30T04:14:29.909Z,21.53
2018-06-30T04:16:58.612Z,20.10
2018-06-30T04:19:27.910Z,20.40
2018-06-30T04:21:56.673Z,21.67
2018-06-30T04:24:25.427Z,22.13
2018-06-30T04:26:54.036Z,22.87
2018-06-30T04:29:22.668Z,21.47
2018-06-30T04:31:51.317Z,21.40
2018-06-30T04:34:20.269Z,20.70
2018-06-30T04:36:48.920Z,20.80
2018-06-30T04:39:17.582Z,22.03
2018-06-30T04:41:46.320Z,20.27
2018-06-30T04:44:15.940Z,20.20
2018-06-30T04:46:45.939Z,20.47
2018-06-30T04:49:14.594Z,22.00
2018-06-30T04:51:43.464Z,20.97
2018-06-30T04:54:13.244Z,19.03
2018-06-30T04:56:42.457Z,19.67
2018-06-30T04:59:11.807Z,19.87
2018-06-30T05:01:40.666Z,20.73
2018-06-30T05:04:09.564Z,20.67
2018-06-30T05:06:38.224Z,20.33
2018-06-30T05:09:08.324Z,20.70
2018-06-30T05:11:37.392Z,19.27
2018-06-30T05:14:06.442Z,20.37
2018-06-30T05:16:35.229Z,22.10
2018-06-30T05:19:04.006Z,19.83
2018-06-30T05:21:33.245Z,19.93
2018-06-30T05:24:02.406Z,19.23
2018-06-30T05:26:31.327Z,19.60
2018-06-30T05:29:00.094Z,20.30
2018-06-30T05:31:29.161Z,19.87
2018-06-30T05:33:58.177Z,19.60
2018-06-30T05:36:27.013Z,18.90
2018-06-30T05:38:55.824Z,17.90
2018-06-30T05:41:24.469Z,19.43
2018-06-30T05:43:53.617Z,18.53
2018-06-30T05:46:22.617Z,19.03
2018-06-30T05:48:51.400Z,17.83
2018-06-30T05:51:20.291Z,18.43
2018-06-30T05:53:49.194Z,18.00
2018-06-30T05:56:18.213Z,17.17
2018-06-30T05:58:47.137Z,18.40
2018-06-30T06:01:16.840Z,18.03
2018-06-30T06:03:45.994Z,14.97
2018-06-30T06:06:14.720Z,15.87
2018-06-30T06:08:43.560Z,14.40
2018-06-30T06:11:12.944Z,14.87
2018-06-30T06:13:41.765Z,14.73
2018-06-30T06:16:10.679Z,13.50
2018-06-30T06:18:39.381Z,13.37
2018-06-30T06:21:08.134Z,12.17
2018-06-30T06:23:36.877Z,11.57
2018-06-30T06:26:06.069Z,9.87
2018-06-30T06:28:34.962Z,9.60
2018-06-30T06:31:03.845Z,9.03
2018-06-30T06:33:32.860Z,8.83
2018-06-30T06:36:01.806Z,8.83
2018-06-30T06:38:30.690Z,8.00
2018-06-30T06:40:59.241Z,8.47
2018-06-30T06:43:28.175Z,7.50
2018-06-30T06:45:57.200Z,8.03
2018-06-30T06:48:25.962Z,7.30
2018-06-30T06:50:54.693Z,7.53
2018-06-30T06:53:23.451Z,7.93
2018-06-30T06:55:52.156Z,7.40
2018-06-30T06:58:21.476Z,7.07
2018-06-30T07:00:50.460Z,7.63
2018-06-30T07:03:19.153Z,6.27
2018-06-30T07:05:48.201Z,7.73
2018-06-30T07:08:16.901Z,7.13
2018-06-30T07:10:45.759Z,7.07
2018-06-30T07:13:14.394Z,8.10
2018-06-30T07:15:43.369Z,7.10
2018-06-30T07:18:12.072Z,7.00
2018-06-30T07:20:41.056Z,6.67
2018-06-30T07:23:10.085Z,5.80
2018-06-30T07:25:38.766Z,7.17
2018-06-30T07:28:08.301Z,6.77
2018-06-30T07:30:37.179Z,5.83
2018-06-30T07:33:05.754Z,6.63
2018-06-30T07:35:34.745Z,6.50
2018-06-30T07:38:03.485Z,6.33
2018-06-30T07:40:31.875Z,5.87
2018-06-30T07:43:01.170Z,5.77
2018-06-30T07:45:29.993Z,6.40
2018-06-30T07:47:59.321Z,6.03
2018-06-30T07:50:28.223Z,5.73
2018-06-30T07:52:57.357Z,5.40
2018-06-30T07:55:26.962Z,5.20
2018-06-30T07:57:56.189Z,5.60
2018-06-30T08:00:26.209Z,5.10
2018-06-30T08:02:56.104Z,5.27
2018-06-30T08:05:24.903Z,4.70
2018-06-30T08:07:54.062Z,5.00
2018-06-30T08:10:22.683Z,5.43
2018-06-30T08:12:51.441Z,4.90
2018-06-30T08:15:20.216Z,4.73
2018-06-30T08:17:50.104Z,4.50
2018-06-30T08:20:18.849Z,4.93
2018-06-30T08:22:47.560Z,5.10
2018-06-30T08:25:16.204Z,5.07
2018-06-30T08:27:45.520Z,4.67
2018-06-30T08:30:15.445Z,4.60
2018-06-30T08:32:44.120Z,4.67
2018-06-30T08:35:13.185Z,4.60
2018-06-30T08:37:41.898Z,4.80
2018-06-30T08:40:10.848Z,4.80
2018-06-30T08:45:54.091Z,4.53
2018-06-30T08:48:22.528Z,4.27
2018-06-30T08:50:50.861Z,4.23
2018-06-30T08:53:19.216Z,4.07
2018-06-30T08:55:47.812Z,4.53
2018-06-30T08:58:16.270Z,4.23
2018-06-30T09:00:44.668Z,4.03
2018-06-30T09:03:12.967Z,4.73
2018-06-30T09:05:41.306Z,4.00
2018-06-30T09:08:10.273Z,4.10
2018-06-30T09:10:38.577Z,4.07
2018-06-30T09:13:06.861Z,4.13
2018-06-30T09:15:35.323Z,3.67
2018-06-30T09:18:03.965Z,3.73
2018-06-30T09:20:32.286Z,3.63
2018-06-30T09:23:00.958Z,3.80
2018-06-30T09:25:29.305Z,3.80
2018-06-30T09:27:57.702Z,3.53
2018-06-30T09:30:27.375Z,3.10
2018-06-30T09:32:56.872Z,3.10
2018-06-30T09:35:25.168Z,3.67
2018-06-30T09:37:53.616Z,2.80
2018-06-30T09:40:22.251Z,3.40
2018-06-30T09:42:50.746Z,3.17
2018-06-30T09:45:19.441Z,3.10
2018-06-30T09:47:47.632Z,2.97
2018-06-30T09:50:16.302Z,2.97
2018-06-30T09:52:45.784Z,3.37
2018-06-30T09:55:14.353Z,3.60
2018-06-30T09:57:42.639Z,3.07
2018-06-30T10:00:11.837Z,2.77
2018-06-30T10:02:40.172Z,2.83
2018-06-30T10:05:09.222Z,2.77
2018-06-30T10:07:37.538Z,2.80
2018-06-30T10:12:41.038Z,2.20
2018-06-30T10:15:09.505Z,2.40
2018-06-30T10:17:37.940Z,2.50
2018-06-30T10:20:06.838Z,2.60
2018-06-30T10:22:35.239Z,2.50
2018-06-30T10:25:03.547Z,2.20
2018-06-30T10:27:32.185Z,2.60
2018-06-30T10:30:00.877Z,2.40
2018-06-30T10:32:29.325Z,2.30
2018-06-30T10:34:57.830Z,2.20
2018-06-30T10:37:26.280Z,2.10
2018-06-30T10:39:54.831Z,1.80
2018-06-30T10:42:23.593Z,2.00
2018-06-30T10:44:52.444Z,2.00
2018-06-30T10:47:21.806Z,1.60
2018-06-30T10:49:51.252Z,1.80
2018-06-30T10:52:21.967Z,1.93
2018-06-30T10:54:50.198Z,1.97
2018-06-30T10:57:18.777Z,2.40
2018-06-30T10:59:47.712Z,6.60
2018-06-30T11:02:19.707Z,7.57
2018-06-30T11:04:48.081Z,11.30
2018-06-30T11:07:17.017Z,15.07
2018-06-30T11:09:45.483Z,12.53
2018-06-30T11:12:14.633Z,14.87
2018-06-30T11:14:43.100Z,18.87
2018-06-30T11:17:11.668Z,13.63
2018-06-30T11:19:40.267Z,13.10
2018-06-30T11:22:08.909Z,10.93
2018-06-30T11:24:37.668Z,9.60
2018-06-30T11:27:06.045Z,9.00
2018-06-30T11:29:34.517Z,11.17
2018-06-30T11:32:02.687Z,7.60
2018-06-30T11:34:30.995Z,6.37
2018-06-30T11:36:59.301Z,6.23
2018-06-30T11:39:27.554Z,8.00
2018-06-30T11:41:55.844Z,9.15
2018-06-30T11:44:24.148Z,9.20
2018-06-30T11:46:52.499Z,9.10
2018-06-30T11:49:21.091Z,5.20
2018-06-30T11:51:49.478Z,3.80
2018-06-30T11:54:19.056Z,3.70
2018-06-30T11:56:47.756Z,3.67
2018-06-30T11:59:16.043Z,4.40
2018-06-30T12:01:44.364Z,5.20
2018-06-30T12:04:12.670Z,4.70
2018-06-30T12:06:40.991Z,5.12
2018-06-30T12:09:10.279Z,5.10
2018-06-30T12:11:38.705Z,4.67
2018-06-30T12:14:07.662Z,4.20
2018-06-30T12:16:36.311Z,4.30
2018-06-30T12:19:04.840Z,4.03
2018-06-30T12:21:33.342Z,4.00
2018-06-30T12:24:02.163Z,3.90
2018-06-30T12:26:30.872Z,4.30
2018-06-30T12:28:59.191Z,3.87
2018-06-30T12:31:27.511Z,3.55
2018-06-30T12:33:56.535Z,3.62
2018-06-30T12:36:24.763Z,3.02
2018-06-30T12:38:53.284Z,2.90
2018-06-30T12:41:21.935Z,3.12
2018-06-30T12:43:50.639Z,3.00
2018-06-30T12:46:19.029Z,3.65
2018-06-30T12:48:47.335Z,3.42
2018-06-30T12:51:15.809Z,3.45
2018-06-30T12:53:44.064Z,2.85
2018-06-30T12:56:12.286Z,3.08
2018-06-30T12:58:40.572Z,2.90
2018-06-30T13:01:08.790Z,2.70
2018-06-30T13:03:37.439Z,2.50
2018-06-30T13:06:07.935Z,2.80
2018-06-30T13:08:36.221Z,2.52
2018-06-30T13:11:04.404Z,2.30
2018-06-30T13:13:32.725Z,2.77
2018-06-30T13:16:01.181Z,2.80
2018-06-30T13:18:29.549Z,2.80
2018-06-30T13:20:57.850Z,3.12
2018-06-30T13:23:26.207Z,2.87
2018-06-30T13:25:54.874Z,2.37
2018-06-30T13:28:23.261Z,2.42
2018-06-30T13:30:51.585Z,2.30
2018-06-30T13:33:19.844Z,2.50
2018-06-30T13:35:48.042Z,2.40
2018-06-30T13:38:16.346Z,2.50
2018-06-30T13:40:44.659Z,2.40
2018-06-30T13:43:13.354Z,2.60
2018-06-30T13:45:42.542Z,2.58
2018-06-30T13:48:11.082Z,2.10
2018-06-30T13:50:39.383Z,1.80
2018-06-30T13:53:07.884Z,2.02
2018-06-30T13:55:36.493Z,2.02
2018-06-30T13:58:05.285Z,2.02
2018-06-30T14:00:33.486Z,1.92
2018-06-30T14:03:02.345Z,2.20
2018-06-30T14:05:30.583Z,2.00
2018-06-30T14:07:59.202Z,2.15
2018-06-30T14:10:27.723Z,1.80
2018-06-30T14:12:56.102Z,2.00
2018-06-30T14:15:24.532Z,1.50
2018-06-30T14:17:52.787Z,1.65
2018-06-30T14:20:21.102Z,1.80
2018-06-30T14:22:49.433Z,1.82
2018-06-30T14:25:17.797Z,1.92
2018-06-30T14:27:46.164Z,1.95
2018-06-30T14:30:17.060Z,1.77
2018-06-30T14:32:46.180Z,1.60
2018-06-30T14:35:14.527Z,1.65
2018-06-30T14:37:42.747Z,1.50
2018-06-30T14:40:11.368Z,1.62
2018-06-30T14:42:39.911Z,1.90
2018-06-30T14:45:08.596Z,1.90
2018-06-30T14:47:37.068Z,2.00
2018-06-30T14:50:05.915Z,1.77
2018-06-30T14:52:34.192Z,1.85
2018-06-30T14:55:02.705Z,1.60
2018-06-30T14:57:31.826Z,1.72
2018-06-30T15:00:00.000Z,1.70
2018-06-30T15:02:28.308Z,1.75
2018-06-30T15:04:57.069Z,1.62
2018-06-30T15:07:26.053Z,2.10
2018-06-30T15:09:54.393Z,1.87
2018-06-30T15:12:22.940Z,1.70
2018-06-30T15:14:51.185Z,2.00
2018-06-30T15:17:20.172Z,1.80
2018-06-30T15:19:49.294Z,1.95
2018-06-30T15:22:20.122Z,1.90
2018-06-30T15:24:48.515Z,1.45
2018-06-30T15:27:17.958Z,1.62
2018-06-30T15:29:47.661Z,1.90
2018-06-30T15:32:17.262Z,2.10
2018-06-30T15:34:45.818Z,2.30
2018-06-30T15:37:15.864Z,2.15
2018-06-30T15:39:44.703Z,2.37
2018-06-30T15:42:12.983Z,2.05
2018-06-30T15:44:41.645Z,1.85
2018-06-30T15:47:10.106Z,2.00
2018-06-30T15:49:38.423Z,2.37
2018-06-30T15:52:07.447Z,2.00
2018-06-30T15:54:36.067Z,1.90
2018-06-30T15:57:04.407Z,2.27
2018-06-30T15:59:32.786Z,2.12
2018-06-30T16:02:01.515Z,1.90
2018-06-30T16:04:30.209Z,2.37
2018-06-30T16:06:58.750Z,1.87
2018-06-30T16:09:27.544Z,2.05
2018-06-30T16:11:56.097Z,2.40
2018-06-30T16:14:24.714Z,1.50
2018-06-30T16:16:53.448Z,1.50
2018-06-30T16:19:22.053Z,1.70
2018-06-30T16:21:50.876Z,2.20
2018-06-30T16:24:19.958Z,2.30
2018-06-30T16:26:48.119Z,2.00
2018-06-30T16:29:16.465Z,1.70
2018-06-30T16:31:44.640Z,1.80
2018-06-30T16:34:13.463Z,1.92
2018-06-30T16:36:42.081Z,1.72
2018-06-30T16:39:11.941Z,1.90
2018-06-30T16:41:40.319Z,2.05
2018-06-30T16:44:08.742Z,2.12
2018-06-30T16:46:38.385Z,1.80
2018-06-30T16:49:07.566Z,1.80
2018-06-30T16:51:36.204Z,1.40
2018-06-30T16:54:04.605Z,1.82
2018-06-30T16:56:33.246Z,2.20
2018-06-30T16:59:02.028Z,1.87
2018-06-30T17:01:30.789Z,1.87
2018-06-30T17:03:59.446Z,2.00
2018-06-30T17:06:28.248Z,1.80
2018-06-30T17:08:57.205Z,1.37
2018-06-30T17:11:25.404Z,1.50
2018-06-30T17:13:53.931Z,1.98
2018-06-30T17:16:22.454Z,1.50
2018-06-30T17:18:50.774Z,1.57
2018-06-30T17:21:19.475Z,1.37
2018-06-30T17:23:48.514Z,1.45
2018-06-30T17:26:17.550Z,1.45
2018-06-30T17:28:46.087Z,1.55
2018-06-30T17:31:14.973Z,1.55
2018-06-30T17:33:43.912Z,1.52
2018-06-30T17:36:12.727Z,1.90
2018-06-30T17:38:41.276Z,1.85
2018-06-30T17:41:09.702Z,2.50
2018-06-30T17:43:38.241Z,1.87
2018-06-30T17:46:06.730Z,2.08
2018-06-30T17:48:35.664Z,1.92
2018-06-30T17:51:04.344Z,1.98
2018-06-30T17:53:32.652Z,1.65
2018-06-30T17:56:01.238Z,1.67
2018-06-30T17:58:30.527Z,1.60
2018-06-30T18:00:59.641Z,1.55
2018-06-30T18:03:27.890Z,1.57
2018-06-30T18:05:56.588Z,1.62
2018-06-30T18:08:26.299Z,1.52
2018-06-30T18:10:54.844Z,1.70
2018-06-30T18:13:23.127Z,1.80
2018-06-30T18:15:52.301Z,1.60
2018-06-30T18:18:20.619Z,1.53
2018-06-30T18:20:52.237Z,1.80
2018-06-30T18:23:20.636Z,1.73
2018-06-30T18:25:48.931Z,1.70
2018-06-30T18:28:17.184Z,1.60
2018-06-30T18:30:45.544Z,1.77
2018-06-30T18:33:15.079Z,2.27
2018-06-30T18:35:43.438Z,2.20
2018-06-30T18:38:11.815Z,2.60
2018-06-30T18:40:40.180Z,2.43
2018-06-30T18:43:08.483Z,3.77
2018-06-30T18:45:37.678Z,3.43
2018-06-30T18:48:05.943Z,3.50
2018-06-30T18:50:34.552Z,3.40
2018-06-30T18:53:02.924Z,2.87
2018-06-30T18:55:33.141Z,2.93
2018-06-30T18:58:01.584Z,2.07
2018-06-30T19:00:30.616Z,2.10
2018-06-30T19:02:59.067Z,1.47
2018-06-30T19:05:28.508Z,1.10
2018-06-30T19:08:02.002Z,1.30
2018-06-30T19:10:33.276Z,0.97
2018-06-30T19:13:01.746Z,1.07
2018-06-30T19:15:31.364Z,0.87
2018-06-30T19:18:00.741Z,1.17
2018-06-30T19:20:30.252Z,1.10
2018-06-30T19:23:00.186Z,1.03
2018-06-30T19:25:29.003Z,0.80
2018-06-30T19:27:57.645Z,0.97
2018-06-30T19:30:27.498Z,1.00
2018-06-30T19:32:57.015Z,0.90
2018-06-30T19:35:27.655Z,0.80
2018-06-30T19:37:56.748Z,0.90
2018-06-30T19:40:29.563Z,0.90
2018-06-30T19:42:58.693Z,0.70
2018-06-30T19:45:27.440Z,1.00
2018-06-30T19:47:57.435Z,0.80
2018-06-30T19:50:25.796Z,0.90
2018-06-30T19:52:55.366Z,1.00
2018-06-30T19:55:24.364Z,1.03
2018-06-30T19:57:54.859Z,1.10
2018-06-30T20:00:24.069Z,0.80
2018-06-30T20:02:54.389Z,1.10
2018-06-30T20:05:23.438Z,0.83
2018-06-30T20:07:54.057Z,0.80
2018-06-30T20:10:24.410Z,1.10
2018-06-30T20:12:53.551Z,0.90
2018-06-30T20:15:22.391Z,1.00
2018-06-30T20:17:51.266Z,1.00
2018-06-30T20:20:20.209Z,0.80
2018-06-30T20:22:48.894Z,0.90
2018-06-30T20:25:19.335Z,0.83
2018-06-30T20:27:48.676Z,0.90
2018-06-30T20:30:17.818Z,1.20
2018-06-30T20:32:47.001Z,1.00
2018-06-30T20:35:15.844Z,1.10
2018-06-30T20:37:44.764Z,0.80
2018-06-30T20:40:13.542Z,0.90
2018-06-30T20:42:42.895Z,0.80
2018-06-30T20:45:11.770Z,0.70
2018-06-30T20:47:41.789Z,1.13
2018-06-30T20:50:10.697Z,0.90
2018-06-30T20:52:39.723Z,1.20
2018-06-30T20:55:08.390Z,0.87
2018-06-30T20:57:37.712Z,1.10
2018-06-30T21:00:06.320Z,1.17
2018-06-30T21:02:35.642Z,1.20
2018-06-30T21:05:04.748Z,1.50
2018-06-30T21:07:33.417Z,2.00
2018-06-30T21:10:02.294Z,1.70
2018-06-30T21:12:31.252Z,2.10
2018-06-30T21:15:00.491Z,2.20
2018-06-30T21:17:29.321Z,2.37
2018-06-30T21:19:58.293Z,2.87
2018-06-30T21:22:27.212Z,3.17
2018-06-30T21:24:56.082Z,3.73
2018-06-30T21:27:24.807Z,3.90
2018-06-30T21:29:53.521Z,3.47
2018-06-30T21:32:22.764Z,4.13
2018-06-30T21:34:51.441Z,4.23
2018-06-30T21:37:20.620Z,4.97
2018-06-30T21:39:49.397Z,4.50
2018-06-30T21:42:18.660Z,4.23
2018-06-30T21:44:47.405Z,4.73
2018-06-30T21:47:16.264Z,4.50
2018-06-30T21:49:46.351Z,4.70
2018-06-30T21:52:15.108Z,4.33
2018-06-30T21:54:44.042Z,4.03
2018-06-30T21:57:13.161Z,3.67
2018-06-30T21:59:42.231Z,3.80
2018-06-30T22:02:11.461Z,2.53
2018-06-30T22:04:39.952Z,2.80
2018-06-30T22:07:08.182Z,3.60
2018-06-30T22:09:36.629Z,2.50
2018-06-30T22:12:05.090Z,2.33
2018-06-30T22:14:33.467Z,2.30
2018-06-30T22:17:02.242Z,2.40
2018-06-30T22:19:31.014Z,2.10
2018-06-30T22:22:00.034Z,2.00
2018-06-30T22:24:28.993Z,1.90
2018-06-30T22:26:57.705Z,1.60
2018-06-30T22:29:26.609Z,1.70
2018-06-30T22:31:54.864Z,1.80
2018-06-30T22:34:23.455Z,1.50
2018-06-30T22:36:51.768Z,1.30
2018-06-30T22:39:25.607Z,1.37
2018-06-30T22:41:54.079Z,1.50
2018-06-30T22:44:22.761Z,1.33
2018-06-30T22:46:53.365Z,1.30
2018-06-30T22:49:21.972Z,1.10
2018-06-30T22:51:50.824Z,1.30
2018-06-30T22:54:20.112Z,1.30
2018-06-30T22:56:48.802Z,1.20
2018-06-30T22:59:17.482Z,1.50
2018-06-30T23:01:46.307Z,1.20
2018-06-30T23:04:15.109Z,1.20
2018-06-30T23:06:44.228Z,1.57
2018-06-30T23:09:13.450Z,1.20
2018-06-30T23:11:42.435Z,1.00
2018-06-30T23:14:10.810Z,1.00
2018-06-30T23:16:39.990Z,1.13
2018-06-30T23:19:08.291Z,1.07
2018-06-30T23:21:37.324Z,1.30
2018-06-30T23:24:05.776Z,1.10
2018-06-30T23:26:34.094Z,1.10
2018-06-30T23:29:02.373Z,1.07
2018-06-30T23:31:30.941Z,1.17
2018-06-30T23:33:59.647Z,0.93
2018-06-30T23:36:28.461Z,1.10
2018-06-30T23:38:57.235Z,0.80
2018-06-30T23:41:25.965Z,1.17
2018-06-30T23:43:55.112Z,1.10
2018-06-30T23:46:24.013Z,1.10
2018-06-30T23:48:53.084Z,1.00
2018-06-30T23:51:21.749Z,1.20
2018-06-30T23:53:50.865Z,1.00
2018-06-30T23:56:19.202Z,1.10
2018-06-30T23:58:48.395Z,1.20
